createdAt,value
2022-12-11T00:00:49.553Z,28.48
2022-12-11T00:03:17.094Z,31.60
2022-12-11T00:05:44.990Z,31.38
2022-12-11T00:08:12.441Z,25.67
2022-12-11T00:10:39.100Z,28.10
2022-12-11T00:13:05.692Z,22.08
2022-12-11T00:15:32.250Z,27.38
2022-12-11T00:17:58.712Z,16.02
2022-12-11T00:20:25.325Z,10.05
2022-12-11T00:22:51.789Z,28.58
2022-12-11T00:25:18.428Z,26.27
2022-12-11T00:27:46.769Z,26.65
2022-12-11T00:30:14.695Z,26.88
2022-12-11T00:32:44.155Z,14.32
2022-12-11T00:35:11.391Z,27.08
2022-12-11T00:37:38.068Z,28.00
2022-12-11T00:40:04.987Z,27.55
2022-12-11T00:42:31.463Z,24.00
2022-12-11T00:44:57.973Z,22.10
2022-12-11T00:47:24.425Z,6.88
2022-12-11T00:49:50.873Z,21.08
2022-12-11T00:52:17.978Z,31.17
2022-12-11T00:54:45.008Z,27.70
2022-12-11T00:57:11.473Z,30.58
2022-12-11T00:59:38.476Z,23.95
2022-12-11T01:02:04.937Z,26.65
2022-12-11T01:04:32.372Z,25.92
2022-12-11T01:06:58.955Z,22.83
2022-12-11T01:09:43.793Z,10.80
2022-12-11T01:12:10.245Z,19.33
2022-12-11T01:14:36.813Z,30.40
2022-12-11T01:17:03.361Z,17.95
2022-12-11T01:19:30.117Z,15.15
2022-12-11T01:21:56.642Z,28.73
2022-12-11T01:24:23.135Z,8.15
2022-12-11T01:26:49.580Z,31.15
2022-12-11T01:29:16.050Z,19.95
2022-12-11T01:31:42.534Z,8.30
2022-12-11T01:34:08.985Z,8.20
2022-12-11T01:36:35.478Z,26.80
2022-12-11T01:39:02.023Z,28.15
2022-12-11T01:41:29.158Z,29.20
2022-12-11T01:43:57.619Z,27.90
2022-12-11T01:46:24.913Z,25.77
2022-12-11T01:48:51.748Z,29.10
2022-12-11T01:51:18.358Z,8.82
2022-12-11T01:53:51.486Z,25.15
2022-12-11T01:56:18.470Z,29.10
2022-12-11T01:58:52.361Z,24.90
2022-12-11T02:01:28.314Z,21.17
2022-12-11T02:03:56.404Z,25.88
2022-12-11T02:06:31.245Z,27.88
2022-12-11T02:08:57.853Z,29.38
2022-12-11T02:11:35.019Z,27.40
2022-12-11T02:14:40.173Z,25.05
2022-12-11T02:17:28.247Z,30.10
2022-12-11T02:20:22.766Z,27.08
2022-12-11T02:22:49.706Z,14.75
2022-12-11T02:25:32.974Z,26.30
2022-12-11T02:28:14.710Z,22.90
2022-12-11T02:30:42.789Z,24.00
2022-12-11T02:33:13.669Z,27.45
2022-12-11T02:35:44.164Z,25.48
2022-12-11T02:38:13.822Z,26.02
2022-12-11T02:40:42.622Z,26.52
2022-12-11T02:43:13.505Z,9.98
2022-12-11T02:45:42.475Z,23.15
2022-12-11T02:48:11.670Z,12.40
2022-12-11T02:50:45.795Z,28.20
2022-12-11T02:53:15.994Z,25.45
2022-12-11T02:55:43.950Z,25.13
2022-12-11T02:58:18.054Z,13.18
2022-12-11T03:00:46.064Z,11.18
2022-12-11T03:03:13.216Z,22.15
2022-12-11T03:05:41.917Z,10.57
2022-12-11T03:08:08.781Z,19.08
2022-12-11T03:10:35.282Z,6.03
2022-12-11T03:13:03.064Z,23.67
2022-12-11T03:15:48.587Z,25.05
2022-12-11T03:21:05.699Z,26.13
2022-12-11T03:23:36.536Z,21.33
2022-12-11T03:26:10.626Z,13.40
2022-12-11T03:28:47.095Z,25.75
2022-12-11T03:31:26.475Z,24.50
2022-12-11T03:33:57.546Z,26.00
2022-12-11T03:36:30.285Z,5.70
2022-12-11T03:39:01.768Z,23.13
2022-12-11T03:41:31.201Z,24.00
2022-12-11T03:43:58.988Z,21.63
2022-12-11T03:46:31.860Z,25.92
2022-12-11T03:49:03.092Z,25.73
2022-12-11T03:51:32.404Z,21.80
2022-12-11T03:54:00.123Z,23.48
2022-12-11T03:56:30.293Z,23.85
2022-12-11T03:58:56.774Z,23.83
2022-12-11T04:01:23.350Z,22.05
2022-12-11T04:03:49.901Z,6.90
2022-12-11T04:06:16.434Z,10.32
2022-12-11T04:08:42.879Z,20.08
2022-12-11T04:11:29.231Z,18.98
2022-12-11T04:14:14.086Z,12.45
2022-12-11T04:16:40.497Z,16.13
2022-12-11T04:19:25.219Z,22.23
2022-12-11T04:22:10.022Z,21.20
2022-12-11T04:24:36.431Z,9.35
2022-12-11T04:27:02.938Z,14.50
2022-12-11T04:29:29.444Z,20.50
2022-12-11T04:31:55.953Z,14.10
2022-12-11T04:34:22.594Z,17.90
2022-12-11T04:36:49.007Z,19.15
2022-12-11T04:39:15.587Z,17.92
2022-12-11T04:41:42.527Z,21.80
2022-12-11T04:44:09.000Z,21.88
2022-12-11T04:46:36.050Z,23.90
2022-12-11T04:49:02.622Z,25.30
2022-12-11T04:51:29.500Z,22.08
2022-12-11T04:53:56.063Z,23.77
2022-12-11T04:56:22.711Z,17.95
2022-12-11T04:58:49.438Z,23.40
2022-12-11T05:01:19.165Z,25.52
2022-12-11T05:03:46.446Z,20.05
2022-12-11T05:06:13.599Z,22.17
2022-12-11T05:08:41.898Z,8.38
2022-12-11T05:11:10.763Z,9.75
2022-12-11T05:13:37.557Z,24.35
2022-12-11T05:16:06.068Z,26.10
2022-12-11T05:18:32.679Z,23.58
2022-12-11T05:21:01.611Z,20.77
2022-12-11T05:23:28.914Z,22.50
2022-12-11T05:25:58.357Z,18.77
2022-12-11T05:28:28.411Z,21.75
2022-12-11T05:30:59.776Z,21.30
2022-12-11T05:33:26.497Z,8.85
2022-12-11T05:35:53.276Z,22.33
2022-12-11T05:38:20.049Z,15.10
2022-12-11T05:41:15.311Z,19.27
2022-12-11T05:43:42.549Z,7.72
2022-12-11T05:46:10.825Z,19.73
2022-12-11T05:48:38.203Z,23.65
2022-12-11T05:51:06.677Z,8.82
2022-12-11T05:53:33.356Z,21.02
2022-12-11T05:56:08.748Z,23.60
2022-12-11T05:58:35.534Z,21.23
2022-12-11T06:01:02.753Z,17.25
2022-12-11T06:03:29.235Z,6.50
2022-12-11T06:05:55.799Z,23.95
2022-12-11T06:08:22.265Z,21.00
2022-12-11T06:10:50.142Z,22.98
2022-12-11T06:13:16.874Z,23.23
2022-12-11T06:15:43.386Z,22.80
2022-12-11T06:18:10.655Z,10.63
2022-12-11T06:20:37.339Z,24.20
2022-12-11T06:23:03.800Z,23.15
2022-12-11T06:25:30.743Z,22.15
2022-12-11T06:27:57.212Z,20.60
2022-12-11T06:30:23.964Z,21.85
2022-12-11T06:33:05.251Z,22.48
2022-12-11T06:35:31.694Z,23.63
2022-12-11T06:37:59.282Z,19.17
2022-12-11T06:40:25.715Z,23.58
2022-12-11T06:42:52.130Z,20.55
2022-12-11T06:45:18.543Z,25.20
2022-12-11T06:47:44.979Z,22.70
2022-12-11T06:50:11.583Z,23.25
2022-12-11T06:52:38.024Z,24.58
2022-12-11T06:55:05.079Z,21.95
2022-12-11T06:57:31.527Z,22.65
2022-12-11T06:59:57.996Z,21.15
2022-12-11T07:02:24.476Z,20.77
2022-12-11T07:04:55.078Z,25.23
2022-12-11T07:07:21.865Z,22.83
2022-12-11T07:09:48.397Z,22.60
2022-12-11T07:12:14.899Z,27.63
2022-12-11T07:14:41.315Z,24.00
2022-12-11T07:17:07.871Z,25.25
2022-12-11T07:19:34.406Z,23.20
2022-12-11T07:22:00.829Z,27.10
2022-12-11T07:24:27.286Z,25.73
2022-12-11T07:26:53.776Z,27.25
2022-12-11T07:29:20.226Z,26.02
2022-12-11T07:31:46.803Z,24.13
2022-12-11T07:34:14.205Z,24.95
2022-12-11T07:36:41.110Z,23.20
2022-12-11T07:39:08.981Z,25.95
2022-12-11T07:41:35.467Z,23.30
2022-12-11T07:44:03.466Z,26.42
2022-12-11T07:46:32.284Z,27.45
2022-12-11T07:49:00.828Z,23.45
2022-12-11T07:51:30.575Z,25.25
2022-12-11T07:53:59.802Z,20.70
2022-12-11T07:56:27.504Z,7.75
2022-12-11T07:58:54.380Z,25.35
2022-12-11T08:01:26.940Z,25.15
2022-12-11T08:03:54.397Z,26.05
2022-12-11T08:06:29.678Z,23.67
2022-12-11T08:08:57.550Z,22.08
2022-12-11T08:11:24.850Z,23.42
2022-12-11T08:13:51.495Z,23.42
2022-12-11T08:16:18.326Z,11.35
2022-12-11T08:18:46.566Z,17.95
2022-12-11T08:21:18.563Z,25.88
2022-12-11T08:23:45.916Z,26.38
2022-12-11T08:26:21.698Z,20.50
2022-12-11T08:28:48.244Z,18.20
2022-12-11T08:31:16.468Z,23.42
2022-12-11T08:33:43.398Z,13.75
2022-12-11T08:36:12.373Z,21.05
2022-12-11T08:38:39.234Z,23.75
2022-12-11T08:41:14.844Z,22.67
2022-12-11T08:43:41.543Z,18.33
2022-12-11T08:46:08.964Z,13.13
2022-12-11T08:48:37.731Z,22.88
2022-12-11T08:51:06.157Z,10.63
2022-12-11T08:53:33.649Z,17.42
2022-12-11T08:56:11.923Z,8.25
2022-12-11T08:58:38.775Z,4.32
2022-12-11T09:01:10.706Z,10.18
2022-12-11T09:03:38.525Z,31.15
2022-12-11T09:06:22.140Z,29.60
2022-12-11T09:08:52.516Z,24.60
2022-12-11T09:11:22.690Z,20.45
2022-12-11T09:13:49.510Z,23.98
2022-12-11T09:16:18.920Z,29.27
2022-12-11T09:18:47.298Z,18.02
2022-12-11T09:21:17.023Z,4.10
2022-12-11T09:23:44.239Z,5.72
2022-12-11T09:26:13.646Z,21.63
2022-12-11T09:28:45.764Z,14.65
2022-12-11T09:31:19.526Z,23.15
2022-12-11T09:33:46.918Z,23.20
2022-12-11T09:36:13.564Z,25.88
2022-12-11T09:38:40.537Z,15.70
2022-12-11T09:41:22.522Z,20.17
2022-12-11T09:43:54.701Z,14.13
2022-12-11T09:46:24.549Z,15.30
2022-12-11T09:48:53.499Z,24.95
2022-12-11T09:51:24.161Z,4.25
2022-12-11T09:53:51.695Z,24.60
2022-12-11T09:56:26.251Z,25.88
2022-12-11T09:58:52.663Z,24.63
2022-12-11T10:01:34.675Z,22.98
2022-12-11T10:04:25.740Z,25.67
2022-12-11T10:07:10.074Z,18.25
2022-12-11T10:10:02.857Z,25.00
2022-12-11T10:12:32.340Z,19.35
2022-12-11T10:15:17.180Z,20.38
2022-12-11T10:17:44.694Z,21.50
2022-12-11T10:20:20.626Z,19.48
2022-12-11T10:22:48.732Z,11.07
2022-12-11T10:25:37.102Z,20.23
2022-12-11T10:28:17.094Z,21.67
2022-12-11T10:30:54.576Z,26.52
2022-12-11T10:33:26.900Z,26.25
2022-12-11T10:35:55.623Z,28.50
2022-12-11T10:38:34.440Z,27.52
2022-12-11T10:41:04.335Z,25.85
2022-12-11T10:43:42.278Z,25.40
2022-12-11T10:46:20.156Z,22.60
2022-12-11T10:48:53.884Z,23.90
2022-12-11T10:51:40.590Z,24.92
2022-12-11T10:54:18.090Z,16.70
2022-12-11T10:56:48.287Z,20.58
2022-12-11T10:59:30.691Z,15.25
2022-12-11T11:01:58.042Z,24.70
2022-12-11T11:04:31.923Z,25.88
2022-12-11T11:07:26.413Z,24.80
2022-12-11T11:10:11.128Z,25.20
2022-12-11T11:12:47.096Z,22.23
2022-12-11T11:15:16.319Z,23.98
2022-12-11T11:17:55.987Z,18.38
2022-12-11T11:20:29.678Z,29.35
2022-12-11T11:22:59.605Z,23.08
2022-12-11T11:25:28.969Z,26.77
2022-12-11T11:28:05.217Z,26.55
2022-12-11T11:30:38.553Z,27.48
2022-12-11T11:33:13.787Z,27.13
2022-12-11T11:35:51.294Z,27.10
2022-12-11T11:38:21.084Z,27.77
2022-12-11T11:41:07.595Z,26.90
2022-12-11T11:43:51.132Z,28.05
2022-12-11T11:46:17.573Z,28.27
2022-12-11T11:49:09.965Z,15.02
2022-12-11T11:51:41.624Z,17.48
2022-12-11T11:54:21.133Z,27.35
2022-12-11T11:56:53.975Z,25.98
2022-12-11T11:59:49.390Z,25.08
2022-12-11T12:02:17.932Z,27.13
2022-12-11T12:04:46.448Z,20.05
2022-12-11T12:07:34.481Z,30.10
2022-12-11T12:10:18.743Z,25.70
2022-12-11T12:12:57.491Z,14.82
2022-12-11T12:15:43.776Z,29.02
2022-12-11T12:18:32.100Z,32.90
2022-12-11T12:21:12.419Z,35.00
2022-12-11T12:24:05.478Z,31.33
2022-12-11T12:26:35.253Z,28.33
2022-12-11T12:29:13.076Z,28.50
2022-12-11T12:32:01.081Z,29.05
2022-12-11T12:34:57.314Z,41.63
2022-12-11T12:37:30.153Z,33.92
2022-12-11T12:40:08.595Z,31.52
2022-12-11T12:42:46.240Z,30.23
2022-12-11T12:45:12.928Z,26.50
2022-12-11T12:47:43.205Z,24.63
2022-12-11T12:50:17.105Z,26.40
2022-12-11T12:52:44.730Z,25.25
2022-12-11T12:55:18.912Z,25.13
2022-12-11T12:57:52.507Z,24.53
2022-12-11T13:00:38.877Z,24.58
2022-12-11T13:03:20.268Z,23.00
2022-12-11T13:06:02.396Z,18.60
2022-12-11T13:08:34.771Z,18.52
2022-12-11T13:11:05.349Z,19.08
2022-12-11T13:13:41.435Z,22.90
2022-12-11T13:16:25.837Z,20.38
2022-12-11T13:18:53.254Z,23.60
2022-12-11T13:21:48.614Z,21.38
2022-12-11T13:24:25.664Z,24.08
2022-12-11T13:26:52.433Z,21.88
2022-12-11T13:29:51.400Z,19.40
2022-12-11T13:32:17.798Z,19.90
2022-12-11T13:34:53.300Z,21.20
2022-12-11T13:37:33.035Z,20.50
2022-12-11T13:40:03.000Z,23.00
2022-12-11T13:42:49.305Z,21.33
2022-12-11T13:45:23.421Z,17.75
2022-12-11T13:47:50.393Z,18.98
2022-12-11T13:50:25.063Z,21.75
2022-12-11T13:53:00.552Z,21.75
2022-12-11T13:55:30.539Z,17.55
2022-12-11T13:57:58.298Z,17.98
2022-12-11T14:00:32.140Z,18.08
2022-12-11T14:03:03.113Z,18.25
2022-12-11T14:05:29.931Z,17.27
2022-12-11T14:08:00.551Z,19.50
2022-12-11T14:10:32.459Z,19.77
2022-12-11T14:13:31.061Z,18.17
2022-12-11T14:15:57.669Z,17.10
2022-12-11T14:18:29.413Z,16.25
2022-12-11T14:21:01.938Z,17.80
2022-12-11T14:23:33.696Z,16.20
2022-12-11T14:26:04.927Z,19.48
2022-12-11T14:28:38.845Z,15.43
2022-12-11T14:31:06.530Z,15.82
2022-12-11T14:33:38.567Z,18.98
2022-12-11T14:36:06.717Z,18.77
2022-12-11T14:38:38.146Z,17.67
2022-12-11T14:41:20.154Z,17.92
2022-12-11T14:43:51.749Z,18.50
2022-12-11T14:46:24.004Z,16.30
2022-12-11T14:49:00.599Z,17.77
2022-12-11T14:51:31.881Z,13.65
2022-12-11T14:54:00.120Z,15.32
2022-12-11T14:56:29.171Z,15.85
2022-12-11T14:59:00.704Z,16.58
2022-12-11T15:01:38.686Z,18.08
2022-12-11T15:04:14.359Z,18.88
2022-12-11T15:06:46.889Z,14.02
2022-12-11T15:09:35.612Z,19.52
2022-12-11T15:12:17.680Z,20.55
2022-12-11T15:14:50.202Z,20.73
2022-12-11T15:17:17.601Z,27.75
2022-12-11T16:00:21.126Z,20.30
2022-12-11T16:02:47.963Z,20.38
2022-12-11T16:05:14.990Z,21.08
2022-12-11T16:07:41.588Z,20.73
2022-12-11T16:10:13.329Z,22.92
2022-12-11T16:12:42.536Z,22.20
2022-12-11T16:15:10.528Z,20.88
2022-12-11T16:17:37.318Z,21.75
2022-12-11T16:20:04.316Z,20.35
2022-12-11T16:22:31.128Z,21.90
2022-12-11T16:24:57.569Z,21.67
2022-12-11T16:27:24.465Z,22.05
2022-12-11T16:29:51.154Z,23.27
2022-12-11T16:32:18.587Z,22.42
2022-12-11T16:34:45.053Z,23.42
2022-12-11T16:37:11.936Z,20.33
2022-12-11T16:39:38.576Z,23.00
2022-12-11T16:42:06.031Z,20.75
2022-12-11T16:44:32.850Z,20.38
2022-12-11T16:46:59.332Z,20.10
2022-12-11T16:49:25.860Z,19.75
2022-12-11T16:51:52.375Z,20.95
2022-12-11T16:54:19.016Z,20.83
2022-12-11T16:56:45.506Z,21.75
2022-12-11T16:59:12.928Z,20.25
2022-12-11T17:01:39.951Z,23.50
2022-12-11T17:04:06.598Z,18.42
2022-12-11T17:06:33.084Z,18.60
2022-12-11T17:08:59.598Z,19.92
2022-12-11T17:11:26.251Z,22.80
2022-12-11T17:13:55.300Z,21.63
2022-12-11T17:16:24.801Z,19.45
2022-12-11T17:18:51.837Z,22.38
2022-12-11T17:21:20.143Z,22.50
2022-12-11T17:23:46.644Z,24.08
2022-12-11T17:26:13.122Z,24.33
2022-12-11T17:28:40.156Z,26.80
2022-12-11T17:31:08.657Z,23.48
2022-12-11T17:33:35.532Z,24.92
2022-12-11T17:36:04.406Z,24.10
2022-12-11T17:38:31.295Z,24.45
2022-12-11T17:40:58.293Z,26.65
2022-12-11T17:43:24.857Z,26.40
2022-12-11T17:45:52.629Z,28.73
2022-12-11T17:48:22.383Z,29.25
2022-12-11T17:50:50.023Z,28.50
2022-12-11T17:53:18.274Z,27.48
2022-12-11T17:55:46.112Z,27.98
2022-12-11T17:58:15.896Z,26.05
2022-12-11T18:00:44.929Z,27.52
2022-12-11T18:03:12.715Z,25.25
2022-12-11T18:05:47.948Z,27.75
2022-12-11T18:08:16.580Z,25.30
2022-12-11T18:10:43.424Z,26.63
2022-12-11T18:13:10.697Z,26.00
2022-12-11T18:15:37.690Z,26.40
2022-12-11T18:18:05.562Z,25.55
2022-12-11T18:20:33.005Z,27.73
2022-12-11T18:22:59.991Z,29.55
2022-12-11T18:25:27.239Z,25.73
2022-12-11T18:27:57.672Z,25.50
2022-12-11T18:30:25.348Z,28.27
2022-12-11T18:32:52.102Z,26.88
2022-12-11T18:35:18.658Z,30.67
2022-12-11T18:37:45.179Z,28.98
2022-12-11T18:40:14.676Z,26.80
2022-12-11T18:42:41.179Z,25.85
2022-12-11T18:45:08.303Z,25.77
2022-12-11T18:47:34.780Z,25.45
2022-12-11T18:50:05.800Z,27.92
2022-12-11T18:52:34.506Z,26.48
2022-12-11T18:55:00.970Z,27.05
2022-12-11T18:57:27.460Z,26.25
2022-12-11T18:59:54.011Z,30.50
2022-12-11T19:02:21.548Z,30.92
2022-12-11T19:04:48.255Z,29.88
2022-12-11T19:07:14.727Z,30.05
2022-12-11T19:09:46.231Z,27.95
2022-12-11T19:12:14.514Z,29.40
2022-12-11T19:14:41.068Z,27.20
2022-12-11T19:17:07.587Z,28.88
2022-12-11T19:19:34.140Z,26.90
2022-12-11T19:22:00.552Z,29.58
2022-12-11T19:24:27.130Z,31.25
2022-12-11T19:26:53.625Z,30.30
2022-12-11T19:29:29.420Z,28.48
2022-12-11T19:31:56.330Z,28.42
2022-12-11T19:34:23.567Z,28.17
2022-12-11T19:36:50.578Z,31.92
2022-12-11T19:39:17.946Z,29.90
2022-12-11T19:41:44.382Z,33.65
2022-12-11T19:44:11.634Z,30.13
2022-12-11T19:46:38.838Z,36.28
2022-12-11T19:49:05.834Z,29.58
2022-12-11T19:51:36.415Z,37.13
2022-12-11T19:54:04.000Z,35.17
2022-12-11T19:56:31.369Z,33.08
2022-12-11T19:58:58.042Z,34.72
2022-12-11T20:01:28.765Z,34.50
2022-12-11T20:03:58.024Z,31.45
2022-12-11T20:06:24.681Z,30.88
2022-12-11T20:08:51.189Z,30.55
2022-12-11T20:11:19.155Z,31.20
2022-12-11T20:13:49.950Z,31.63
2022-12-11T20:16:20.005Z,36.17
2022-12-11T20:18:55.728Z,34.65
2022-12-11T20:21:22.267Z,35.85
2022-12-11T20:23:49.112Z,37.90
2022-12-11T20:26:18.844Z,36.83
2022-12-11T20:28:47.956Z,37.92
2022-12-11T20:31:20.366Z,34.00
2022-12-11T20:33:49.038Z,29.77
2022-12-11T20:36:17.980Z,29.48
2022-12-11T20:38:45.492Z,29.63
2022-12-11T20:41:17.104Z,30.63
2022-12-11T20:43:44.542Z,28.35
2022-12-11T20:46:17.246Z,30.35
2022-12-11T20:48:45.481Z,32.65
2022-12-11T20:51:16.780Z,32.70
2022-12-11T20:53:45.534Z,30.58
2022-12-11T20:56:16.963Z,30.13
2022-12-11T20:58:45.673Z,30.02
2022-12-11T21:01:20.780Z,32.13
2022-12-11T21:06:45.107Z,28.17
2022-12-11T21:09:16.776Z,30.70
2022-12-11T21:11:43.800Z,31.65
2022-12-11T21:14:10.839Z,33.35
2022-12-11T21:16:38.305Z,33.97
2022-12-11T21:19:05.887Z,35.40
2022-12-11T21:21:42.586Z,34.15
2022-12-11T21:24:15.290Z,33.67
2022-12-11T21:26:42.282Z,34.13
2022-12-11T21:29:09.013Z,35.95
2022-12-11T21:31:35.635Z,37.72
2022-12-11T21:34:02.172Z,33.38
2022-12-11T21:36:28.624Z,31.25
2022-12-11T21:38:55.130Z,31.00
2022-12-11T21:41:23.810Z,29.92
2022-12-11T21:44:56.604Z,29.85
2022-12-11T21:46:39.428Z,29.60
2022-12-11T21:49:06.047Z,31.30
2022-12-11T21:51:38.545Z,31.23
2022-12-11T21:54:10.204Z,21.27
2022-12-11T21:56:36.658Z,32.22
2022-12-11T21:59:03.642Z,28.83
2022-12-11T22:01:34.912Z,28.80
2022-12-11T22:04:02.298Z,29.38
2022-12-11T22:06:28.740Z,31.70
2022-12-11T22:08:55.195Z,32.30
2022-12-11T22:11:26.152Z,27.17
2022-12-11T22:13:52.749Z,29.23
2022-12-11T22:16:19.354Z,28.13
2022-12-11T22:18:46.291Z,26.45
2022-12-11T22:21:12.993Z,28.25
2022-12-11T22:23:40.682Z,27.85
2022-12-11T22:26:09.340Z,28.50
2022-12-11T22:28:36.153Z,29.27
2022-12-11T22:31:02.958Z,32.05
2022-12-11T22:33:29.573Z,32.60
2022-12-11T22:36:00.347Z,33.53
2022-12-11T22:38:27.039Z,31.20
2022-12-11T22:40:54.280Z,29.13
2022-12-11T22:43:21.642Z,29.52
2022-12-11T22:45:48.087Z,27.48
2022-12-11T22:48:14.583Z,28.63
2022-12-11T22:50:43.373Z,27.30
2022-12-11T22:53:10.094Z,27.92
2022-12-11T22:55:39.481Z,26.92
2022-12-11T22:58:06.795Z,27.50
2022-12-11T23:00:33.220Z,27.83
2022-12-11T23:02:59.768Z,29.98
2022-12-11T23:05:26.408Z,28.05
2022-12-11T23:07:53.029Z,27.27
2022-12-11T23:10:19.681Z,27.88
2022-12-11T23:12:46.125Z,27.77
2022-12-11T23:15:13.059Z,29.90
2022-12-11T23:17:39.847Z,32.33
2022-12-11T23:20:07.077Z,33.20
2022-12-11T23:22:34.006Z,35.22
2022-12-11T23:25:01.172Z,35.22
2022-12-11T23:27:28.170Z,34.80
2022-12-11T23:29:55.209Z,33.63
2022-12-11T23:32:21.749Z,33.83
2022-12-11T23:34:48.316Z,35.92
2022-12-11T23:37:15.425Z,34.03
2022-12-11T23:39:41.882Z,36.40
2022-12-11T23:42:09.381Z,40.85
2022-12-11T23:44:35.827Z,35.08
2022-12-11T23:47:02.239Z,32.95
2022-12-11T23:49:28.726Z,28.63
2022-12-11T23:51:56.034Z,28.30
2022-12-11T23:54:22.510Z,28.50
2022-12-11T23:56:48.967Z,30.05
2022-12-11T23:59:15.595Z,28.95
